createdAt,value
2019-05-19T00:04:14.716Z,23.40
2019-05-19T00:14:50.733Z,21.90
2019-05-19T00:25:25.975Z,22.50
2019-05-19T00:36:05.702Z,20.90
2019-05-19T00:46:41.735Z,22.60
2019-05-19T00:57:24.827Z,24.90
2019-05-19T01:08:07.766Z,23.00
2019-05-19T01:18:43.726Z,26.10
2019-05-19T01:29:27.030Z,25.90
2019-05-19T01:40:02.937Z,25.40
2019-05-19T01:50:45.849Z,28.60
2019-05-19T02:01:26.947Z,28.70
2019-05-19T02:12:09.965Z,26.50
2019-05-19T02:22:53.152Z,23.60
2019-05-19T02:33:35.841Z,28.40
2019-05-19T02:44:08.844Z,20.30
2019-05-19T02:54:45.169Z,19.80
2019-05-19T03:05:28.164Z,25.10
2019-05-19T03:16:11.704Z,21.60
2019-05-19T03:26:52.955Z,19.40
2019-05-19T03:37:28.863Z,31.30
2019-05-19T03:48:07.176Z,25.90
2019-05-19T03:58:51.168Z,25.00
2019-05-19T04:09:33.136Z,31.20
2019-05-19T04:20:17.203Z,30.80
2019-05-19T04:30:59.896Z,30.20
2019-05-19T04:41:39.491Z,29.90
2019-05-19T04:52:19.120Z,29.50
2019-05-19T05:03:03.143Z,30.30
2019-05-19T05:13:43.932Z,33.90
2019-05-19T05:24:24.108Z,30.60
2019-05-19T05:35:08.892Z,31.90
2019-05-19T05:45:52.008Z,36.20
2019-05-19T05:56:29.174Z,31.60
2019-05-19T06:07:13.015Z,30.20
2019-05-19T06:17:50.715Z,33.80
2019-05-19T06:28:36.012Z,36.00
2019-05-19T06:39:07.430Z,40.10
2019-05-19T06:49:45.342Z,40.00
2019-05-19T07:00:27.146Z,39.70
2019-05-19T07:11:08.932Z,39.80
2019-05-19T07:21:52.036Z,33.50
2019-05-19T07:32:37.249Z,37.20
2019-05-19T07:43:19.276Z,36.10
2019-05-19T07:53:54.337Z,37.90
2019-05-19T08:04:37.029Z,40.00
2019-05-19T08:15:21.829Z,40.60
2019-05-19T08:26:07.172Z,36.10
2019-05-19T08:36:51.667Z,36.60
2019-05-19T08:47:33.968Z,35.80
2019-05-19T08:58:18.234Z,38.40
2019-05-19T09:09:01.312Z,36.70
2019-05-19T09:19:46.155Z,32.60
2019-05-19T09:30:27.501Z,36.80
2019-05-19T09:41:11.989Z,33.50
2019-05-19T09:51:56.162Z,29.50
2019-05-19T10:02:33.280Z,26.60
2019-05-19T10:13:09.172Z,28.20
2019-05-19T10:23:53.331Z,25.40
2019-05-19T10:34:31.285Z,23.20
2019-05-19T10:45:02.208Z,17.90
2019-05-19T10:55:46.082Z,14.20
2019-05-19T11:06:18.379Z,18.40
2019-05-19T11:17:02.449Z,18.90
2019-05-19T11:27:47.243Z,20.80
2019-05-19T11:38:30.315Z,14.00
2019-05-19T11:49:09.150Z,15.50
2019-05-19T11:59:50.423Z,15.40
2019-05-19T12:10:26.569Z,15.50
2019-05-19T12:21:10.257Z,16.00
2019-05-19T12:31:54.436Z,15.20
2019-05-19T12:42:37.131Z,17.00
2019-05-19T12:53:17.114Z,17.30
2019-05-19T13:03:44.317Z,15.20
2019-05-19T13:14:21.410Z,18.80
2019-05-19T13:25:04.334Z,21.70
2019-05-19T13:35:45.544Z,22.50
2019-05-19T13:46:23.530Z,21.30
2019-05-19T13:57:12.260Z,22.50
2019-05-19T14:07:50.133Z,20.00
2019-05-19T14:18:29.244Z,3.80
2019-05-19T14:29:12.556Z,3.60
2019-05-19T14:39:49.355Z,4.20
2019-05-19T14:50:29.307Z,5.60
2019-05-19T15:01:13.478Z,3.70
2019-05-19T15:11:57.139Z,4.40
2019-05-19T15:22:38.336Z,4.80
2019-05-19T15:33:19.469Z,3.60
2019-05-19T15:44:03.565Z,4.10
2019-05-19T15:54:45.267Z,3.80
2019-05-19T16:05:27.579Z,5.90
2019-05-19T16:16:03.469Z,5.00
2019-05-19T16:26:42.205Z,3.60
2019-05-19T16:37:25.410Z,3.90
2019-05-19T16:47:57.683Z,3.50
2019-05-19T16:58:45.477Z,3.20
2019-05-19T17:09:21.793Z,4.40
2019-05-19T17:20:04.416Z,2.80
2019-05-19T17:30:40.394Z,4.40
2019-05-19T17:41:21.392Z,3.30
2019-05-19T17:51:59.665Z,4.10
2019-05-19T18:02:41.696Z,4.00
2019-05-19T18:13:21.415Z,3.30
2019-05-19T18:24:02.498Z,3.80
2019-05-19T18:34:41.583Z,5.00
2019-05-19T18:45:24.817Z,5.70
2019-05-19T18:55:55.242Z,4.10
2019-05-19T19:06:27.153Z,4.20
2019-05-19T19:16:57.712Z,5.70
2019-05-19T19:27:37.324Z,5.30
2019-05-19T19:38:14.589Z,4.80
2019-05-19T19:48:49.469Z,8.70
2019-05-19T19:59:29.722Z,6.40
2019-05-19T20:10:07.207Z,11.90
2019-05-19T20:20:43.736Z,11.20
2019-05-19T20:31:24.358Z,12.20
2019-05-19T20:42:02.443Z,11.90
2019-05-19T20:52:40.545Z,14.50
2019-05-19T21:03:14.237Z,14.90
2019-05-19T21:13:56.939Z,49.50
2019-05-19T21:24:27.567Z,37.80
2019-05-19T21:35:08.904Z,36.30
2019-05-19T21:45:43.882Z,28.70
2019-05-19T21:56:24.309Z,34.00
2019-05-19T22:06:56.923Z,33.80
2019-05-19T22:17:34.841Z,74.30
2019-05-19T22:28:15.857Z,34.40
2019-05-19T22:38:52.983Z,23.10
2019-05-19T22:49:29.426Z,26.30
2019-05-19T23:00:06.318Z,24.90
2019-05-19T23:10:40.608Z,21.70
2019-05-19T23:21:16.019Z,23.40
2019-05-19T23:32:06.856Z,28.50
2019-05-19T23:42:35.310Z,34.30
2019-05-19T23:53:14.700Z,28.00
